createdAt,value
2023-01-17T00:02:23.246Z,6.20
2023-01-17T00:05:13.644Z,6.20
2023-01-17T00:08:19.767Z,6.20
2023-01-17T00:10:47.544Z,6.30
2023-01-17T00:13:15.177Z,6.20
2023-01-17T00:15:42.900Z,6.10
2023-01-17T00:18:10.615Z,6.00
2023-01-17T00:20:56.736Z,6.00
2023-01-17T00:23:44.518Z,6.00
2023-01-17T00:26:15.902Z,6.00
2023-01-17T00:28:44.562Z,6.00
2023-01-17T00:31:14.386Z,6.10
2023-01-17T00:33:42.047Z,6.20
2023-01-17T00:36:10.560Z,6.30
2023-01-17T00:38:39.689Z,6.30
2023-01-17T00:41:12.563Z,6.30
2023-01-17T00:43:59.405Z,6.30
2023-01-17T00:46:45.681Z,6.30
2023-01-17T00:49:32.002Z,6.10
2023-01-17T00:52:17.945Z,6.10
2023-01-17T00:55:03.782Z,6.00
2023-01-17T00:57:49.987Z,5.80
2023-01-17T01:00:38.963Z,5.70
2023-01-17T01:03:30.096Z,5.70
2023-01-17T01:06:16.561Z,5.80
2023-01-17T01:09:02.706Z,5.80
2023-01-17T01:11:49.112Z,5.90
2023-01-17T01:14:35.294Z,5.80
2023-01-17T01:17:21.636Z,5.90
2023-01-17T01:20:07.849Z,5.90
2023-01-17T01:22:54.063Z,5.90
2023-01-17T01:25:40.295Z,6.00
2023-01-17T01:28:30.524Z,5.90
2023-01-17T01:31:24.000Z,5.90
2023-01-17T01:33:53.218Z,6.00
2023-01-17T01:36:21.087Z,6.00
2023-01-17T01:38:50.502Z,5.90
2023-01-17T01:41:18.482Z,5.90
2023-01-17T01:43:48.695Z,5.90
2023-01-17T01:46:31.775Z,6.00
2023-01-17T01:49:08.595Z,6.00
2023-01-17T01:51:42.734Z,5.90
2023-01-17T01:54:27.200Z,5.80
2023-01-17T01:56:57.868Z,5.70
2023-01-17T01:59:26.430Z,5.80
2023-01-17T02:01:58.407Z,5.80
2023-01-17T02:04:28.578Z,5.80
2023-01-17T02:07:06.821Z,5.70
2023-01-17T02:09:34.797Z,5.80
2023-01-17T02:12:04.632Z,5.80
2023-01-17T02:14:32.418Z,5.80
2023-01-17T02:17:28.051Z,5.70
2023-01-17T02:20:15.469Z,5.80
2023-01-17T02:22:58.178Z,5.70
2023-01-17T02:25:59.688Z,5.70
2023-01-17T02:29:12.097Z,5.70
2023-01-17T02:31:55.531Z,5.90
2023-01-17T02:34:35.308Z,5.80
2023-01-17T02:37:13.280Z,5.80
2023-01-17T02:39:54.280Z,5.80
2023-01-17T02:42:28.175Z,5.80
2023-01-17T02:44:55.785Z,6.00
2023-01-17T02:47:31.033Z,6.00
2023-01-17T02:50:05.470Z,5.90
2023-01-17T02:53:03.301Z,5.90
2023-01-17T02:56:08.540Z,5.90
2023-01-17T02:59:35.286Z,6.00
2023-01-17T03:02:18.396Z,5.90
2023-01-17T03:05:10.878Z,5.90
2023-01-17T03:07:41.966Z,5.90
2023-01-17T03:10:12.977Z,5.80
2023-01-17T03:12:41.191Z,6.00
2023-01-17T03:15:15.048Z,5.90
2023-01-17T03:17:46.860Z,5.90
2023-01-17T03:20:14.661Z,5.90
2023-01-17T03:22:42.321Z,6.10
2023-01-17T03:25:10.125Z,6.20
2023-01-17T03:27:37.778Z,6.30
2023-01-17T03:30:06.556Z,6.20
2023-01-17T03:32:34.249Z,6.20
2023-01-17T03:35:01.997Z,6.20
2023-01-17T03:37:29.689Z,6.20
2023-01-17T03:39:57.334Z,6.10
2023-01-17T03:42:25.066Z,5.90
2023-01-17T03:44:52.831Z,5.90
2023-01-17T03:47:21.502Z,5.90
2023-01-17T03:49:49.180Z,6.00
2023-01-17T03:52:18.238Z,6.00
2023-01-17T03:54:45.925Z,5.90
2023-01-17T03:57:13.563Z,5.80
2023-01-17T03:59:41.259Z,5.70
2023-01-17T04:02:09.040Z,5.70
2023-01-17T04:04:37.008Z,5.60
2023-01-17T04:07:04.782Z,5.60
2023-01-17T04:09:34.203Z,5.60
2023-01-17T04:12:03.244Z,5.50
2023-01-17T04:14:33.041Z,5.50
2023-01-17T04:17:01.528Z,5.50
2023-01-17T04:19:36.980Z,5.60
2023-01-17T04:22:04.765Z,5.60
2023-01-17T04:24:32.409Z,5.50
2023-01-17T04:27:00.413Z,5.50
2023-01-17T04:29:28.099Z,5.60
2023-01-17T04:31:55.859Z,5.80
2023-01-17T04:34:23.626Z,5.80
2023-01-17T04:36:52.371Z,5.90
2023-01-17T04:39:20.050Z,5.90
2023-01-17T04:41:47.802Z,5.90
2023-01-17T04:44:15.490Z,5.80
2023-01-17T04:46:43.261Z,5.90
2023-01-17T04:49:10.864Z,6.00
2023-01-17T04:51:38.613Z,5.90
2023-01-17T04:54:06.300Z,5.90
2023-01-17T04:56:33.987Z,5.90
2023-01-17T04:59:07.277Z,5.90
2023-01-17T05:01:35.063Z,5.90
2023-01-17T05:04:02.899Z,5.90
2023-01-17T05:06:30.551Z,5.90
2023-01-17T05:08:58.327Z,5.90
2023-01-17T05:11:35.697Z,5.90
2023-01-17T05:14:03.385Z,5.90
2023-01-17T05:16:31.025Z,6.00
2023-01-17T05:18:58.734Z,6.10
2023-01-17T05:21:26.487Z,6.10
2023-01-17T05:23:54.452Z,6.10
2023-01-17T05:26:22.087Z,6.10
2023-01-17T05:28:50.352Z,6.00
2023-01-17T05:31:18.158Z,6.10
2023-01-17T05:33:45.954Z,6.10
2023-01-17T05:36:13.595Z,6.10
2023-01-17T05:38:41.310Z,6.10
2023-01-17T05:41:09.046Z,6.10
2023-01-17T05:43:36.834Z,6.10
2023-01-17T05:46:04.558Z,6.00
2023-01-17T05:48:33.303Z,6.20
2023-01-17T05:51:01.892Z,6.10
2023-01-17T05:53:29.630Z,6.10
2023-01-17T05:55:57.318Z,6.00
2023-01-17T05:58:48.218Z,6.10
2023-01-17T06:01:15.929Z,6.10
2023-01-17T06:03:43.585Z,6.10
2023-01-17T06:06:11.217Z,6.00
2023-01-17T06:08:38.875Z,5.90
2023-01-17T06:11:06.886Z,5.90
2023-01-17T06:13:34.738Z,5.90
2023-01-17T06:16:04.225Z,5.80
2023-01-17T06:18:32.457Z,5.80
2023-01-17T06:21:00.303Z,5.80
2023-01-17T06:23:28.583Z,5.90
2023-01-17T06:25:56.489Z,5.80
2023-01-17T06:28:24.720Z,5.70
2023-01-17T06:30:52.546Z,5.70
2023-01-17T06:33:20.295Z,5.70
2023-01-17T06:35:52.152Z,5.70
2023-01-17T06:38:20.602Z,5.60
2023-01-17T06:40:49.190Z,5.60
2023-01-17T06:43:17.088Z,5.60
2023-01-17T06:45:44.852Z,5.60
2023-01-17T06:48:12.601Z,5.60
2023-01-17T06:50:40.295Z,5.70
2023-01-17T06:53:08.093Z,5.60
2023-01-17T06:55:40.355Z,5.50
2023-01-17T06:58:10.050Z,5.50
2023-01-17T07:00:40.480Z,5.40
2023-01-17T07:03:19.263Z,5.40
2023-01-17T07:05:47.278Z,5.30
2023-01-17T07:08:17.079Z,5.20
2023-01-17T07:10:45.979Z,5.20
2023-01-17T07:13:14.546Z,5.30
2023-01-17T07:15:42.363Z,5.20
2023-01-17T07:18:10.066Z,5.30
2023-01-17T07:20:38.833Z,5.30
2023-01-17T07:23:06.932Z,5.30
2023-01-17T07:25:34.675Z,5.40
2023-01-17T07:28:02.422Z,5.40
2023-01-17T07:30:33.043Z,5.50
2023-01-17T07:33:01.713Z,5.50
2023-01-17T07:35:29.397Z,5.50
2023-01-17T07:37:57.122Z,5.50
2023-01-17T07:40:25.481Z,5.50
2023-01-17T07:42:53.216Z,5.50
2023-01-17T07:45:22.108Z,5.50
2023-01-17T07:47:50.274Z,5.50
2023-01-17T07:50:18.112Z,5.50
2023-01-17T07:52:50.639Z,5.50
2023-01-17T07:55:18.642Z,5.50
2023-01-17T07:57:50.429Z,5.50
2023-01-17T08:00:18.718Z,5.50
2023-01-17T08:02:46.453Z,5.50
2023-01-17T08:05:14.179Z,5.50
2023-01-17T08:07:41.788Z,5.50
2023-01-17T08:10:13.309Z,5.50
2023-01-17T08:12:41.047Z,5.50
2023-01-17T08:15:09.558Z,5.60
2023-01-17T08:17:37.299Z,5.60
2023-01-17T08:20:06.446Z,5.60
2023-01-17T08:22:34.147Z,5.70
2023-01-17T08:25:01.880Z,5.70
2023-01-17T08:27:29.758Z,5.70
2023-01-17T08:29:59.299Z,5.70
2023-01-17T08:32:33.519Z,5.60
2023-01-17T08:35:01.258Z,5.70
2023-01-17T08:37:28.925Z,5.70
2023-01-17T08:39:56.543Z,5.70
2023-01-17T08:42:25.410Z,5.70
2023-01-17T08:44:53.183Z,5.70
2023-01-17T08:47:20.896Z,5.70
2023-01-17T08:49:48.534Z,5.70
2023-01-17T08:52:16.173Z,5.70
2023-01-17T08:54:44.043Z,5.70
2023-01-17T08:57:11.793Z,5.80
2023-01-17T08:59:39.491Z,5.80
2023-01-17T09:02:15.047Z,5.80
2023-01-17T09:04:47.333Z,5.90
2023-01-17T09:07:16.317Z,5.90
2023-01-17T09:09:44.127Z,5.90
2023-01-17T09:12:11.898Z,6.00
2023-01-17T09:14:39.625Z,6.00
2023-01-17T09:17:07.288Z,6.00
2023-01-17T09:19:35.751Z,6.00
2023-01-17T09:22:06.645Z,6.00
2023-01-17T09:24:34.418Z,6.00
2023-01-17T09:27:02.102Z,6.00
2023-01-17T09:29:29.993Z,6.00
2023-01-17T09:32:01.008Z,6.00
2023-01-17T09:34:28.876Z,6.00
2023-01-17T09:36:57.165Z,6.10
2023-01-17T09:39:25.095Z,6.10
2023-01-17T09:42:12.194Z,6.10
2023-01-17T09:44:53.102Z,6.00
2023-01-17T09:47:43.874Z,6.00
2023-01-17T09:50:44.891Z,6.00
2023-01-17T09:53:20.918Z,5.90
2023-01-17T09:55:58.905Z,6.00
2023-01-17T09:58:30.589Z,5.90
2023-01-17T10:01:30.239Z,6.00
2023-01-17T10:04:18.340Z,6.00
2023-01-17T10:07:05.987Z,6.10
2023-01-17T10:09:37.666Z,6.10
2023-01-17T10:12:19.305Z,6.20
2023-01-17T10:14:54.255Z,6.20
2023-01-17T10:18:05.700Z,6.20
2023-01-17T10:20:45.576Z,6.30
2023-01-17T10:23:18.235Z,6.30
2023-01-17T10:25:52.536Z,6.20
2023-01-17T10:28:53.123Z,6.10
2023-01-17T10:31:26.351Z,6.10
2023-01-17T10:34:03.845Z,6.10
2023-01-17T10:36:41.813Z,6.10
2023-01-17T10:39:24.302Z,6.00
2023-01-17T10:42:14.368Z,6.10
2023-01-17T10:44:51.543Z,6.10
2023-01-17T10:47:21.986Z,6.00
2023-01-17T10:49:53.198Z,6.10
2023-01-17T10:52:23.627Z,6.10
2023-01-17T10:55:07.751Z,6.10
2023-01-17T10:57:44.805Z,6.10
2023-01-17T11:00:45.545Z,6.10
2023-01-17T11:03:15.747Z,6.10
2023-01-17T11:05:44.310Z,6.10
2023-01-17T11:08:14.625Z,6.10
2023-01-17T11:10:49.426Z,6.10
2023-01-17T11:13:37.720Z,6.00
2023-01-17T11:16:33.982Z,6.10
2023-01-17T11:19:10.533Z,6.10
2023-01-17T11:21:41.057Z,6.10
2023-01-17T11:24:19.868Z,6.10
2023-01-17T11:26:52.732Z,6.10
2023-01-17T11:29:37.681Z,6.00
2023-01-17T11:32:32.063Z,6.00
2023-01-17T11:35:21.387Z,6.00
2023-01-17T11:38:02.005Z,5.90
2023-01-17T11:40:36.343Z,5.80
2023-01-17T11:43:18.852Z,5.80
2023-01-17T11:46:00.980Z,5.70
2023-01-17T11:48:42.169Z,5.70
2023-01-17T11:51:30.508Z,5.60
2023-01-17T11:54:25.084Z,5.70
2023-01-17T11:56:59.534Z,5.70
2023-01-17T11:59:38.216Z,5.70
2023-01-17T12:02:42.303Z,5.70
2023-01-17T12:05:44.678Z,5.80
2023-01-17T12:08:44.748Z,5.80
2023-01-17T12:12:08.232Z,5.90
2023-01-17T12:15:15.216Z,5.90
2023-01-17T12:17:53.927Z,6.00
2023-01-17T12:21:05.937Z,6.00
2023-01-17T12:23:43.159Z,5.90
2023-01-17T12:26:25.899Z,6.00
2023-01-17T12:29:27.839Z,6.10
2023-01-17T12:32:30.808Z,6.10
2023-01-17T12:35:19.298Z,6.20
2023-01-17T12:38:04.487Z,6.30
2023-01-17T12:40:39.839Z,6.30
2023-01-17T12:43:23.951Z,6.40
2023-01-17T12:45:54.790Z,6.50
2023-01-17T12:48:26.271Z,6.60
2023-01-17T12:51:06.343Z,6.60
2023-01-17T12:53:57.848Z,6.80
2023-01-17T12:56:36.429Z,6.70
2023-01-17T12:59:32.359Z,6.70
2023-01-17T13:02:02.662Z,6.80
2023-01-17T13:04:57.668Z,6.80
2023-01-17T13:07:45.854Z,6.80
2023-01-17T13:10:33.494Z,6.80
2023-01-17T13:13:16.338Z,6.90
2023-01-17T13:15:44.673Z,6.90
2023-01-17T13:18:23.246Z,6.90
2023-01-17T13:21:04.974Z,6.90
2023-01-17T13:23:59.767Z,6.90
2023-01-17T13:26:36.580Z,6.90
2023-01-17T13:29:22.936Z,6.90
2023-01-17T13:32:12.211Z,6.90
2023-01-17T13:34:57.341Z,6.90
2023-01-17T13:37:49.638Z,6.90
2023-01-17T13:40:20.319Z,7.00
2023-01-17T13:42:56.227Z,7.10
2023-01-17T13:45:51.331Z,7.10
2023-01-17T13:48:19.044Z,7.10
2023-01-17T13:50:55.749Z,7.00
2023-01-17T13:53:46.090Z,7.00
2023-01-17T13:56:19.678Z,7.00
2023-01-17T13:58:50.287Z,7.10
2023-01-17T14:01:24.252Z,7.00
2023-01-17T14:03:52.127Z,7.10
2023-01-17T14:06:30.650Z,7.10
2023-01-17T14:09:04.495Z,7.10
2023-01-17T14:12:06.065Z,7.00
2023-01-17T14:14:45.589Z,7.10
2023-01-17T14:17:16.331Z,7.10
2023-01-17T14:19:48.860Z,7.10
2023-01-17T14:22:19.736Z,7.10
2023-01-17T14:25:17.475Z,7.10
2023-01-17T14:27:50.163Z,7.10
2023-01-17T14:30:18.290Z,7.10
2023-01-17T14:33:01.313Z,7.10
2023-01-17T14:35:33.552Z,7.10
2023-01-17T14:38:03.195Z,7.10
2023-01-17T14:40:33.428Z,7.10
2023-01-17T14:43:10.279Z,7.10
2023-01-17T14:45:38.969Z,7.00
2023-01-17T14:48:14.958Z,7.00
2023-01-17T14:50:44.996Z,7.00
2023-01-17T14:53:12.818Z,6.90
2023-01-17T14:55:50.901Z,6.90
2023-01-17T14:58:22.919Z,6.90
2023-01-17T15:01:02.363Z,7.00
2023-01-17T15:03:41.903Z,7.00
2023-01-17T15:06:21.116Z,7.00
2023-01-17T15:08:50.333Z,7.00
2023-01-17T15:11:25.878Z,7.00
2023-01-17T15:13:57.617Z,6.90
2023-01-17T15:16:30.349Z,6.80
2023-01-17T15:18:58.577Z,6.80
2023-01-17T15:21:40.768Z,6.80
2023-01-17T15:24:15.496Z,6.80
2023-01-17T15:26:43.832Z,6.80
2023-01-17T15:29:26.672Z,6.80
2023-01-17T15:31:58.735Z,6.80
2023-01-17T15:34:38.039Z,6.70
2023-01-17T15:37:21.807Z,6.70
2023-01-17T15:39:49.666Z,6.60
2023-01-17T15:42:23.090Z,6.60
2023-01-17T15:44:56.617Z,6.70
2023-01-17T15:47:35.629Z,6.60
2023-01-17T15:50:30.366Z,6.60
2023-01-17T15:53:01.365Z,6.60
2023-01-17T15:55:37.765Z,6.50
2023-01-17T15:58:27.466Z,6.50
2023-01-17T16:00:56.369Z,6.60
2023-01-17T16:03:27.465Z,6.50
2023-01-17T16:05:58.135Z,6.60
2023-01-17T16:08:39.268Z,6.50
2023-01-17T16:11:08.873Z,6.50
2023-01-17T16:13:39.278Z,6.40
2023-01-17T16:16:33.548Z,6.30
2023-01-17T16:19:02.926Z,6.30
2023-01-17T16:21:32.104Z,6.50
2023-01-17T16:24:01.532Z,6.60
2023-01-17T16:26:29.477Z,6.70
2023-01-17T16:28:57.309Z,6.70
2023-01-17T16:31:26.159Z,6.60
2023-01-17T16:33:53.942Z,6.50
2023-01-17T16:36:23.148Z,6.30
2023-01-17T16:38:52.514Z,6.30
2023-01-17T16:41:21.272Z,6.20
2023-01-17T16:43:58.669Z,6.20
2023-01-17T16:46:26.379Z,6.30
2023-01-17T16:48:54.097Z,6.20
2023-01-17T16:51:22.831Z,6.30
2023-01-17T16:53:50.544Z,6.20
2023-01-17T16:56:20.775Z,6.30
2023-01-17T16:58:48.511Z,6.20
2023-01-17T17:01:21.150Z,6.20
2023-01-17T17:03:49.185Z,6.20
2023-01-17T17:06:17.305Z,6.10
2023-01-17T17:08:45.182Z,6.10
2023-01-17T17:11:22.016Z,6.00
2023-01-17T17:13:51.091Z,6.00
2023-01-17T17:16:26.571Z,6.00
2023-01-17T17:19:00.521Z,6.00
2023-01-17T17:21:28.869Z,6.00
2023-01-17T17:23:58.599Z,6.00
2023-01-17T17:26:29.076Z,6.10
2023-01-17T17:28:57.570Z,6.10
2023-01-17T17:31:25.472Z,6.10
2023-01-17T17:33:53.659Z,6.10
2023-01-17T17:36:21.300Z,6.20
2023-01-17T17:38:52.029Z,6.20
2023-01-17T17:41:46.034Z,6.20
2023-01-17T17:44:14.130Z,6.10
2023-01-17T17:46:43.179Z,6.10
2023-01-17T17:49:10.980Z,6.10
2023-01-17T17:51:40.553Z,6.10
2023-01-17T17:54:13.390Z,6.20
2023-01-17T17:56:42.500Z,6.30
2023-01-17T17:59:10.246Z,6.40
2023-01-17T18:01:38.437Z,6.30
2023-01-17T18:04:07.842Z,6.30
2023-01-17T18:06:36.282Z,6.20
2023-01-17T18:09:06.672Z,6.30
2023-01-17T18:11:36.536Z,6.20
2023-01-17T18:14:06.897Z,6.10
2023-01-17T18:16:37.355Z,6.30
2023-01-17T18:19:05.951Z,6.20
2023-01-17T18:21:36.153Z,6.30
2023-01-17T18:24:09.059Z,6.30
2023-01-17T18:26:45.448Z,6.30
2023-01-17T18:29:15.917Z,6.40
2023-01-17T18:31:45.238Z,6.30
2023-01-17T18:34:15.566Z,6.20
2023-01-17T18:36:44.141Z,6.20
2023-01-17T18:39:14.795Z,6.30
2023-01-17T18:41:43.329Z,6.10
2023-01-17T18:44:11.239Z,6.10
2023-01-17T18:46:40.491Z,6.00
2023-01-17T18:49:10.850Z,5.90
2023-01-17T18:51:38.840Z,5.90
2023-01-17T18:54:08.975Z,5.80
2023-01-17T18:56:36.778Z,5.80
2023-01-17T18:59:07.155Z,5.80
2023-01-17T19:01:36.215Z,5.70
2023-01-17T19:04:05.528Z,5.80
2023-01-17T19:06:39.164Z,5.80
2023-01-17T19:09:08.711Z,5.70
2023-01-17T19:11:36.980Z,5.70
2023-01-17T19:14:06.513Z,5.70
2023-01-17T19:16:39.432Z,5.70
2023-01-17T19:19:09.843Z,5.60
2023-01-17T19:21:38.183Z,5.70
2023-01-17T19:24:06.842Z,5.70
2023-01-17T19:26:34.556Z,5.80
2023-01-17T19:29:05.363Z,5.70
2023-01-17T19:31:37.347Z,5.80
2023-01-17T19:34:05.562Z,5.70
2023-01-17T19:36:36.236Z,5.70
2023-01-17T19:39:06.822Z,5.70
2023-01-17T19:41:37.457Z,5.70
2023-01-17T19:44:07.332Z,5.60
2023-01-17T19:46:36.100Z,5.70
2023-01-17T19:49:05.980Z,5.70
2023-01-17T19:51:33.766Z,5.80
2023-01-17T19:54:06.921Z,5.90
2023-01-17T19:56:35.171Z,5.90
2023-01-17T19:59:02.972Z,5.90
2023-01-17T20:01:33.529Z,5.70
2023-01-17T20:04:02.759Z,5.70
2023-01-17T20:06:36.060Z,5.60
2023-01-17T20:09:05.603Z,5.70
2023-01-17T20:11:33.381Z,5.80
2023-01-17T20:14:01.241Z,5.80
2023-01-17T20:16:31.217Z,5.70
2023-01-17T20:19:00.328Z,5.70
2023-01-17T20:21:29.652Z,5.70
2023-01-17T20:23:58.971Z,5.60
2023-01-17T20:26:34.594Z,5.60
2023-01-17T20:29:06.947Z,5.70
2023-01-17T20:31:38.325Z,5.80
2023-01-17T20:34:08.496Z,5.80
2023-01-17T20:36:37.105Z,5.80
2023-01-17T20:39:06.948Z,5.80
2023-01-17T20:41:40.147Z,5.80
2023-01-17T20:44:11.061Z,5.80
2023-01-17T20:46:41.414Z,5.70
2023-01-17T20:49:15.061Z,5.50
2023-01-17T20:51:44.790Z,5.60
2023-01-17T20:54:15.307Z,5.70
2023-01-17T20:56:43.760Z,5.60
2023-01-17T20:59:19.898Z,5.60
2023-01-17T21:01:48.671Z,5.50
2023-01-17T21:04:16.811Z,5.50
2023-01-17T21:06:44.727Z,5.40
2023-01-17T21:09:14.907Z,5.60
2023-01-17T21:11:42.606Z,5.50
2023-01-17T21:14:10.409Z,5.40
2023-01-17T21:16:38.281Z,5.40
2023-01-17T21:19:06.193Z,5.40
2023-01-17T21:21:33.927Z,5.30
2023-01-17T21:24:01.583Z,5.30
2023-01-17T21:26:29.826Z,5.30
2023-01-17T21:29:00.490Z,5.30
2023-01-17T21:31:30.748Z,5.40
2023-01-17T21:34:04.552Z,5.50
2023-01-17T21:36:34.860Z,5.50
2023-01-17T21:39:10.354Z,5.60
2023-01-17T21:41:41.357Z,5.60
2023-01-17T21:44:13.939Z,5.60
2023-01-17T21:46:42.301Z,5.60
2023-01-17T21:49:12.501Z,5.70
2023-01-17T21:52:04.817Z,5.70
2023-01-17T21:54:51.037Z,5.80
2023-01-17T21:57:41.669Z,5.70
2023-01-17T22:00:16.437Z,5.70
2023-01-17T22:02:45.421Z,5.80
2023-01-17T22:05:14.134Z,5.80
2023-01-17T22:08:02.192Z,5.80
2023-01-17T22:10:29.901Z,5.80
2023-01-17T22:12:57.631Z,5.80
2023-01-17T22:15:25.322Z,5.80
2023-01-17T22:17:53.039Z,5.80
2023-01-17T22:20:21.536Z,5.70
2023-01-17T22:22:49.239Z,5.70
2023-01-17T22:25:16.937Z,5.70
2023-01-17T22:27:44.754Z,5.70
2023-01-17T22:30:13.226Z,5.70
2023-01-17T22:32:40.914Z,5.70
2023-01-17T22:35:09.711Z,5.60
2023-01-17T22:37:37.444Z,5.60
2023-01-17T22:40:06.062Z,5.70
2023-01-17T22:42:34.773Z,5.60
2023-01-17T22:45:02.430Z,5.60
2023-01-17T22:47:30.213Z,5.60
2023-01-17T22:49:57.981Z,5.60
2023-01-17T22:52:26.185Z,5.60
2023-01-17T22:54:54.512Z,5.70
2023-01-17T22:57:23.363Z,5.70
2023-01-17T22:59:51.545Z,5.60
2023-01-17T23:02:19.327Z,5.60
2023-01-17T23:04:49.146Z,5.60
2023-01-17T23:07:17.012Z,5.60
2023-01-17T23:09:45.158Z,5.60
2023-01-17T23:12:12.836Z,5.50
2023-01-17T23:14:58.894Z,5.40
2023-01-17T23:17:45.032Z,5.20
2023-01-17T23:20:12.868Z,5.20
2023-01-17T23:22:40.530Z,5.20
2023-01-17T23:25:11.311Z,5.20
2023-01-17T23:28:02.823Z,5.40
2023-01-17T23:30:37.586Z,5.20
2023-01-17T23:33:13.553Z,5.10
2023-01-17T23:35:43.557Z,5.10
2023-01-17T23:38:34.150Z,5.30
2023-01-17T23:41:26.466Z,5.10
2023-01-17T23:43:56.364Z,5.10
2023-01-17T23:46:25.561Z,5.20
2023-01-17T23:48:55.077Z,5.30
2023-01-17T23:51:22.963Z,5.30
2023-01-17T23:53:55.346Z,5.40
2023-01-17T23:56:24.872Z,5.30
2023-01-17T23:58:52.533Z,5.20
